Aérodrome :
LOGIN :

S'inscrire | Disclaimer

   EN    FR    IT 

 










Légende :    VFR   VFR Marginal   IFR   IFR Intensif   IFR Très Intensif
Visi : 
Plafond : 
>= 8 km
>= 3000ft
5 à 8 km
1000 à 3000 ft
1500m à 5 km
500 à 1000 ft
800 à 1500m
200 à 500 ft
< 800m
< 200 ft
Symboles :   Orages  Brouillard  Fortes neiges  Fortes précipitations  Vent > 20 kt
SIGMETs :   Divers  Orages  Givrage  Turbulence  Onde Orograph.  Cendres Volcan.







- Altitude de l'aérodrome : 453 ft
- Code IATA : SBK
- Voir les cartes d'approche


LFRT - St Brieuc Armor

DERNIER METAR :
  • 281130Z AUTO 30003KT 250V360 9999 BKN024 BKN030 BKN036 11/06 Q1019

METARs EXPIRÉS :
  • 281100Z AUTO 30005KT 260V320 9999 SCT023 BKN030 BKN038 10/07 Q1019
  • 281030Z AUTO 29003KT 250V350 9999 FEW019 SCT030 BKN044 10/07 Q1019
  • 281000Z AUTO 32003KT 9999 FEW017 SCT040 OVC046 10/07 Q1019
  • 280930Z AUTO 32006KT 9999 SCT016 SCT023 BKN033 09/07 Q1019
  • 280900Z AUTO 32006KT 260V340 9999 FEW014 OVC062 10/07 Q1019

Prévision TAF périmée.
Pas de NOTAMs connus pour ce terrain.



MET'MAP, la Météo Aéronautique d'un coup d'oeil ! - Copyright ORBIFLY Décembre 2007 - Disclaimer

ORBIFLY MET'MAP TEAM :

Programmation & Développement : Alexandra Zaïnal
Conception & Développement : Baudouin d'Aumeries
Co-Programmation & Développement : Marc-Olivier Méhu
Soutien technique & logistique : Manuel Goepfert

Contact : metmap@orbifly.com




SOURCES & CREDITS :

   NOAA